PWSweather.com
Personal Weather Stations
Station Observations
728536
Kristiansand, FlekkeroyNO 4625

KristiansandFlekkeroyNO 4625

Lat: 58.0860587, Lon: 8.0151742

Elevation: 36

Station Type: Davis Vantage Pro2

http://www.paulen.no

Latest ConditionsUpdated 7:00:01 PM GMT+01:01 Tuesday, Nov 12, 2019
Currently Today's Max Today's Min Today's Average
Temperature 45.5°F7.5°C 46.5°F8.1°C 42.5°F5.8°C 44.5°F6.9°C
Dew Point 42.7°F5.9°C 44.3°F6.8°C 39.0°F3.9°C 41.3°F5.2°C
Winds 8.1 mph NNE13.0 kmh NNE 23.0 mph -37.0 kmh - - 16.7 mph 26.9 kmh
Wind Gusts 15.0 mph24.1 kmh 36.8 mph59.2 kmh - -
Humidity 90% 93% 82% 89%
Pressure 29.41 in995.9 mb 29.50 in999.0 mb 29.34 in993.6 mb -
Precipitation - 0.19 in4.8 mm - -
Hour Temp Dew Point Humidity Winds Wind Gusts Pressure Precip Precip Rate Daily Precip Total
07:00 PM 45.5°F7.5°C 42.7°F5.9°C 90% 8.1 mph NNE13.0 kmh NNE 15.0 mph24.1 kmh 29.41 in995.9 mb - 0.04 in1.0 mm 0.19 in4.8 mm
06:50 PM 45.8°F7.7°C 42.4°F5.8°C 88% 15.0 mph NE24.1 kmh NE 23.0 mph37.0 kmh 29.40 in995.6 mb - 0.03 in0.8 mm 0.18 in4.6 mm
06:40 PM 45.4°F7.4°C 42.4°F5.8°C 89% 12.7 mph NE20.4 kmh NE 17.3 mph27.8 kmh 29.39 in995.3 mb - 0.04 in1.0 mm 0.18 in4.6 mm
06:30 PM 45.2°F7.3°C 41.6°F5.3°C 87% 19.6 mph NE31.5 kmh NE 23.0 mph37.0 kmh 29.39 in995.3 mb - 0.04 in1.0 mm 0.18 in4.6 mm
06:20 PM 45.7°F7.6°C 43.5°F6.4°C 92% 13.8 mph NE22.2 kmh NE 21.9 mph35.2 kmh 29.39 in995.3 mb - 0.05 in1.3 mm 0.18 in4.6 mm
06:10 PM 45.9°F7.7°C 43.2°F6.2°C 90% 16.1 mph ENE25.9 kmh ENE 19.6 mph31.5 kmh 29.38 in994.9 mb - 0.03 in0.8 mm 0.17 in4.3 mm
06:00 PM 45.8°F7.7°C 43.3°F6.3°C 91% 13.8 mph NE22.2 kmh NE 16.1 mph25.9 kmh 29.38 in994.9 mb - 0.02 in0.5 mm 0.15 in3.8 mm
05:50 PM 45.8°F7.7°C 43.3°F6.3°C 91% 13.8 mph NE22.2 kmh NE 24.2 mph38.9 kmh 29.37 in994.6 mb - 0.02 in0.5 mm 0.15 in3.8 mm
05:40 PM 45.6°F7.6°C 43.2°F6.2°C 91% 15.0 mph NE24.1 kmh NE 18.4 mph29.6 kmh 29.37 in994.6 mb - 0.01 in0.3 mm 0.14 in3.6 mm
05:30 PM 45.1°F7.3°C 42.3°F5.7°C 90% 13.8 mph S22.2 kmh S 17.3 mph27.8 kmh 29.37 in994.6 mb - 0.02 in0.5 mm 0.14 in3.6 mm
05:20 PM 45.6°F7.6°C 42.8°F6.0°C 90% 12.7 mph NE20.4 kmh NE 16.1 mph25.9 kmh 29.36 in994.2 mb - 0.02 in0.5 mm 0.13 in3.3 mm
05:10 PM 46.5°F8.1°C 44.3°F6.8°C 92% 20.7 mph E33.3 kmh E 27.6 mph44.4 kmh 29.36 in994.2 mb - 0.02 in0.5 mm 0.13 in3.3 mm
05:00 PM 46.2°F7.9°C 44.0°F6.7°C 92% 16.1 mph SE25.9 kmh SE 20.7 mph33.3 kmh 29.36 in994.2 mb - 0.02 in0.5 mm 0.13 in3.3 mm
04:50 PM 45.1°F7.3°C 42.3°F5.7°C 90% 11.5 mph ENE18.5 kmh ENE 12.7 mph20.4 kmh 29.36 in994.2 mb - 0.03 in0.8 mm 0.13 in3.3 mm
04:40 PM 45.6°F7.6°C 43.1°F6.2°C 91% 12.7 mph S20.4 kmh S 17.3 mph27.8 kmh 29.36 in994.2 mb - 0.03 in0.8 mm 0.13 in3.3 mm
04:30 PM 45.5°F7.5°C 43.6°F6.4°C 93% 11.5 mph S18.5 kmh S 15.0 mph24.1 kmh 29.36 in994.2 mb - 0.02 in0.5 mm 0.13 in3.3 mm
04:20 PM 45.3°F7.4°C 43.4°F6.3°C 93% 8.1 mph E13.0 kmh E 11.5 mph18.5 kmh 29.36 in994.2 mb - 0.02 in0.5 mm 0.12 in3.0 mm
04:10 PM 45.2°F7.3°C 43.0°F6.1°C 92% 12.7 mph S20.4 kmh S 15.0 mph24.1 kmh 29.36 in994.2 mb - 0.02 in0.5 mm 0.12 in3.0 mm
04:00 PM 45.3°F7.4°C 42.8°F6.0°C 91% 13.8 mph NE22.2 kmh NE 17.3 mph27.8 kmh 29.36 in994.2 mb - 0.02 in0.5 mm 0.11 in2.8 mm
03:50 PM 45.8°F7.7°C 43.8°F6.6°C 93% 12.7 mph E20.4 kmh E 15.0 mph24.1 kmh 29.36 in994.2 mb - 0.01 in0.3 mm 0.10 in2.5 mm
03:40 PM 46.0°F7.8°C 43.5°F6.4°C 91% 11.5 mph NE18.5 kmh NE 18.4 mph29.6 kmh 29.35 in993.9 mb - 0.02 in0.5 mm 0.10 in2.5 mm
03:30 PM 45.7°F7.6°C 43.2°F6.2°C 91% 13.8 mph NE22.2 kmh NE 18.4 mph29.6 kmh 29.35 in993.9 mb - 0.02 in0.5 mm 0.10 in2.5 mm
03:20 PM 45.5°F7.5°C 43.0°F6.1°C 91% 13.8 mph NE22.2 kmh NE 19.6 mph31.5 kmh 29.35 in993.9 mb - 0.02 in0.5 mm 0.09 in2.3 mm
03:10 PM 45.4°F7.4°C 43.2°F6.2°C 92% 12.7 mph NE20.4 kmh NE 17.3 mph27.8 kmh 29.35 in993.9 mb - 0.02 in0.5 mm 0.09 in2.3 mm
03:00 PM 45.4°F7.4°C 43.2°F6.2°C 92% 19.6 mph NE31.5 kmh NE 26.5 mph42.6 kmh 29.34 in993.6 mb - 0.02 in0.5 mm 0.09 in2.3 mm
02:50 PM 45.5°F7.5°C 43.0°F6.1°C 91% 15.0 mph NE24.1 kmh NE 21.9 mph35.2 kmh 29.34 in993.6 mb - 0.02 in0.5 mm 0.09 in2.3 mm
02:40 PM 45.2°F7.3°C 43.3°F6.3°C 93% 15.0 mph NE24.1 kmh NE 21.9 mph35.2 kmh 29.34 in993.6 mb - 0.01 in0.3 mm 0.09 in2.3 mm
02:30 PM 45.4°F7.4°C 42.9°F6.1°C 91% 16.1 mph ESE25.9 kmh ESE 21.9 mph35.2 kmh 29.34 in993.6 mb - 0.00 in0.0 mm 0.08 in2.0 mm
02:20 PM 45.8°F7.7°C 42.4°F5.8°C 88% 16.1 mph S25.9 kmh S 20.7 mph33.3 kmh 29.34 in993.6 mb - 0.00 in0.0 mm 0.08 in2.0 mm
02:10 PM 45.5°F7.5°C 43.0°F6.1°C 91% 17.3 mph SSE27.8 kmh SSE 19.6 mph31.5 kmh 29.34 in993.6 mb - 0.00 in0.0 mm 0.08 in2.0 mm
02:00 PM 45.5°F7.5°C 42.7°F5.9°C 90% 16.1 mph S25.9 kmh S 19.6 mph31.5 kmh 29.34 in993.6 mb - 0.00 in0.0 mm 0.08 in2.0 mm
01:50 PM 45.5°F7.5°C 42.2°F5.7°C 88% 17.3 mph E27.8 kmh E 20.7 mph33.3 kmh 29.34 in993.6 mb - 0.00 in0.0 mm 0.08 in2.0 mm
01:40 PM 45.5°F7.5°C 42.1°F5.6°C 88% 18.4 mph S29.6 kmh S 24.2 mph38.9 kmh 29.34 in993.6 mb - 0.00 in0.0 mm 0.08 in2.0 mm
01:30 PM 45.5°F7.5°C 41.9°F5.5°C 87% 16.1 mph NE25.9 kmh NE 18.4 mph29.6 kmh 29.34 in993.6 mb - 0.01 in0.3 mm 0.08 in2.0 mm
01:20 PM 45.6°F7.6°C 42.0°F5.6°C 87% 13.8 mph S22.2 kmh S 20.7 mph33.3 kmh 29.34 in993.6 mb - 0.01 in0.3 mm 0.08 in2.0 mm
01:10 PM 45.4°F7.4°C 42.1°F5.6°C 88% 17.3 mph S27.8 kmh S 26.5 mph42.6 kmh 29.34 in993.6 mb - 0.01 in0.3 mm 0.08 in2.0 mm
01:00 PM 45.1°F7.3°C 41.8°F5.4°C 88% 19.6 mph SE31.5 kmh SE 24.2 mph38.9 kmh 29.34 in993.6 mb - 0.01 in0.3 mm 0.08 in2.0 mm
12:50 PM 44.8°F7.1°C 41.8°F5.4°C 89% 19.6 mph SE31.5 kmh SE 26.5 mph42.6 kmh 29.34 in993.6 mb - 0.01 in0.3 mm 0.08 in2.0 mm
12:40 PM 44.7°F7.1°C 41.6°F5.3°C 89% 18.4 mph SE29.6 kmh SE 25.3 mph40.7 kmh 29.34 in993.6 mb - 0.01 in0.3 mm 0.08 in2.0 mm
12:30 PM 44.6°F7.0°C 41.8°F5.4°C 90% 18.4 mph S29.6 kmh S 26.5 mph42.6 kmh 29.34 in993.6 mb - 0.01 in0.3 mm 0.08 in2.0 mm
12:20 PM 44.8°F7.1°C 42.0°F5.6°C 90% 15.0 mph SSE24.1 kmh SSE 20.7 mph33.3 kmh 29.35 in993.9 mb - 0.00 in0.0 mm 0.07 in1.8 mm
12:10 PM 44.7°F7.1°C 41.6°F5.3°C 89% 21.9 mph SSE35.2 kmh SSE 26.5 mph42.6 kmh 29.35 in993.9 mb - 0.00 in0.0 mm 0.07 in1.8 mm
12:00 PM 44.4°F6.9°C 41.4°F5.2°C 89% 18.4 mph S29.6 kmh S 24.2 mph38.9 kmh 29.35 in993.9 mb - 0.00 in0.0 mm 0.07 in1.8 mm
11:50 AM 44.5°F6.9°C 41.5°F5.3°C 89% 20.7 mph E33.3 kmh E 26.5 mph42.6 kmh 29.35 in993.9 mb - 0.00 in0.0 mm 0.07 in1.8 mm
11:40 AM 44.5°F6.9°C 41.5°F5.3°C 89% 18.4 mph SSE29.6 kmh SSE 21.9 mph35.2 kmh 29.35 in993.9 mb - 0.00 in0.0 mm 0.07 in1.8 mm
11:30 AM 44.3°F6.8°C 41.3°F5.2°C 89% 17.3 mph ENE27.8 kmh ENE 27.6 mph44.4 kmh 29.36 in994.2 mb - 0.00 in0.0 mm 0.07 in1.8 mm
11:20 AM 44.6°F7.0°C 41.3°F5.2°C 88% 17.3 mph S27.8 kmh S 21.9 mph35.2 kmh 29.35 in993.9 mb - 0.00 in0.0 mm 0.07 in1.8 mm
11:10 AM 45.1°F7.3°C 41.4°F5.2°C 87% 16.1 mph NE25.9 kmh NE 19.6 mph31.5 kmh 29.35 in993.9 mb - 0.01 in0.3 mm 0.07 in1.8 mm
11:00 AM 45.0°F7.2°C 41.4°F5.2°C 87% 15.0 mph S24.1 kmh S 21.9 mph35.2 kmh 29.35 in993.9 mb - 0.01 in0.3 mm 0.07 in1.8 mm
10:50 AM 45.1°F7.3°C 41.5°F5.3°C 87% 19.6 mph S31.5 kmh S 21.9 mph35.2 kmh 29.35 in993.9 mb - 0.01 in0.3 mm 0.07 in1.8 mm
10:40 AM 44.8°F7.1°C 41.4°F5.2°C 88% 16.1 mph S25.9 kmh S 25.3 mph40.7 kmh 29.36 in994.2 mb - 0.02 in0.5 mm 0.07 in1.8 mm
10:30 AM 44.7°F7.1°C 41.7°F5.4°C 89% 21.9 mph S35.2 kmh S 36.8 mph59.2 kmh 29.35 in993.9 mb - 0.02 in0.5 mm 0.07 in1.8 mm
10:20 AM 44.5°F6.9°C 42.0°F5.6°C 91% 21.9 mph S35.2 kmh S 23.0 mph37.0 kmh 29.36 in994.2 mb - 0.02 in0.5 mm 0.07 in1.8 mm
10:10 AM 44.3°F6.8°C 41.9°F5.5°C 91% 18.4 mph S29.6 kmh S 21.9 mph35.2 kmh 29.36 in994.2 mb - 0.01 in0.3 mm 0.06 in1.5 mm
10:00 AM 44.1°F6.7°C 41.6°F5.3°C 91% 19.6 mph NE31.5 kmh NE 25.3 mph40.7 kmh 29.36 in994.2 mb - 0.01 in0.3 mm 0.06 in1.5 mm
09:50 AM 44.2°F6.8°C 41.7°F5.4°C 91% 17.3 mph S27.8 kmh S 24.2 mph38.9 kmh 29.36 in994.2 mb - 0.01 in0.3 mm 0.06 in1.5 mm
09:40 AM 44.1°F6.7°C 41.6°F5.3°C 91% 17.3 mph SE27.8 kmh SE 21.9 mph35.2 kmh 29.36 in994.2 mb - 0.00 in0.0 mm 0.06 in1.5 mm
09:30 AM 44.3°F6.8°C 41.8°F5.4°C 91% 15.0 mph S24.1 kmh S 21.9 mph35.2 kmh 29.36 in994.2 mb - 0.00 in0.0 mm 0.06 in1.5 mm
09:20 AM 44.1°F6.7°C 41.0°F5.0°C 89% 16.1 mph S25.9 kmh S 20.7 mph33.3 kmh 29.36 in994.2 mb - 0.01 in0.3 mm 0.06 in1.5 mm
09:10 AM 44.1°F6.7°C 41.6°F5.3°C 91% 19.6 mph SSE31.5 kmh SSE 23.0 mph37.0 kmh 29.36 in994.2 mb - 0.01 in0.3 mm 0.06 in1.5 mm
09:00 AM 44.4°F6.9°C 41.7°F5.4°C 90% 23.0 mph S37.0 kmh S 26.5 mph42.6 kmh 29.36 in994.2 mb - 0.01 in0.3 mm 0.06 in1.5 mm
08:50 AM 43.9°F6.6°C 41.7°F5.4°C 92% 17.3 mph E27.8 kmh E 21.9 mph35.2 kmh 29.36 in994.2 mb - 0.01 in0.3 mm 0.06 in1.5 mm
08:40 AM 44.0°F6.7°C 41.8°F5.4°C 92% 18.4 mph S29.6 kmh S 27.6 mph44.4 kmh 29.36 in994.2 mb - 0.01 in0.3 mm 0.06 in1.5 mm
08:30 AM 43.7°F6.5°C 41.2°F5.1°C 91% 15.0 mph S24.1 kmh S 23.0 mph37.0 kmh 29.36 in994.2 mb - 0.01 in0.3 mm 0.06 in1.5 mm
08:20 AM 43.4°F6.3°C 41.2°F5.1°C 92% 18.4 mph S29.6 kmh S 26.5 mph42.6 kmh 29.36 in994.2 mb - 0.00 in0.0 mm 0.05 in1.3 mm
08:10 AM 43.3°F6.3°C 41.1°F5.1°C 92% 17.3 mph S27.8 kmh S 25.3 mph40.7 kmh 29.37 in994.6 mb - 0.00 in0.0 mm 0.05 in1.3 mm
08:00 AM 43.5°F6.4°C 41.4°F5.2°C 92% 16.1 mph S25.9 kmh S 19.6 mph31.5 kmh 29.37 in994.6 mb - 0.01 in0.3 mm 0.05 in1.3 mm
07:50 AM 43.4°F6.3°C 41.3°F5.2°C 92% 18.4 mph SSE29.6 kmh SSE 20.7 mph33.3 kmh 29.37 in994.6 mb - 0.01 in0.3 mm 0.05 in1.3 mm
07:40 AM 43.6°F6.4°C 40.9°F4.9°C 90% 20.7 mph S33.3 kmh S 27.6 mph44.4 kmh 29.37 in994.6 mb - 0.01 in0.3 mm 0.05 in1.3 mm
07:30 AM 43.6°F6.4°C 41.1°F5.1°C 91% 13.8 mph S22.2 kmh S 23.0 mph37.0 kmh 29.37 in994.6 mb - 0.01 in0.3 mm 0.05 in1.3 mm
07:20 AM 43.8°F6.6°C 41.1°F5.1°C 90% 16.1 mph S25.9 kmh S 20.7 mph33.3 kmh 29.37 in994.6 mb - 0.01 in0.3 mm 0.05 in1.3 mm
07:10 AM 43.9°F6.6°C 41.4°F5.2°C 91% 17.3 mph S27.8 kmh S 24.2 mph38.9 kmh 29.37 in994.6 mb - 0.01 in0.3 mm 0.05 in1.3 mm
07:00 AM 43.9°F6.6°C 40.8°F4.9°C 89% 19.6 mph S31.5 kmh S 25.3 mph40.7 kmh 29.37 in994.6 mb - 0.00 in0.0 mm 0.04 in1.0 mm
06:50 AM 43.8°F6.6°C 40.8°F4.9°C 89% 20.7 mph SSE33.3 kmh SSE 29.9 mph48.1 kmh 29.38 in994.9 mb - 0.00 in0.0 mm 0.04 in1.0 mm
06:40 AM 44.2°F6.8°C 40.5°F4.7°C 87% 17.3 mph S27.8 kmh S 26.5 mph42.6 kmh 29.37 in994.6 mb - 0.00 in0.0 mm 0.04 in1.0 mm
06:30 AM 44.1°F6.7°C 40.5°F4.7°C 87% 17.3 mph SSE27.8 kmh SSE 19.6 mph31.5 kmh 29.38 in994.9 mb - 0.00 in0.0 mm 0.04 in1.0 mm
06:20 AM 43.9°F6.6°C 39.9°F4.4°C 86% 16.1 mph E25.9 kmh E 20.7 mph33.3 kmh 29.38 in994.9 mb - 0.00 in0.0 mm 0.04 in1.0 mm
06:10 AM 43.7°F6.5°C 40.1°F4.5°C 87% 17.3 mph SSE27.8 kmh SSE 23.0 mph37.0 kmh 29.38 in994.9 mb - 0.00 in0.0 mm 0.04 in1.0 mm
06:00 AM 43.5°F6.4°C 40.2°F4.6°C 88% 18.4 mph S29.6 kmh S 26.5 mph42.6 kmh 29.38 in994.9 mb - 0.00 in0.0 mm 0.04 in1.0 mm
05:50 AM 43.4°F6.3°C 40.1°F4.5°C 88% 20.7 mph SE33.3 kmh SE 26.5 mph42.6 kmh 29.39 in995.3 mb - 0.01 in0.3 mm 0.04 in1.0 mm
05:40 AM 43.1°F6.2°C 39.5°F4.2°C 87% 18.4 mph S29.6 kmh S 27.6 mph44.4 kmh 29.39 in995.3 mb - 0.02 in0.5 mm 0.04 in1.0 mm
05:30 AM 43.1°F6.2°C 39.8°F4.3°C 88% 17.3 mph SE27.8 kmh SE 23.0 mph37.0 kmh 29.39 in995.3 mb - 0.02 in0.5 mm 0.04 in1.0 mm
05:20 AM 43.0°F6.1°C 40.0°F4.4°C 89% 16.1 mph SSE25.9 kmh SSE 23.0 mph37.0 kmh 29.39 in995.3 mb - 0.02 in0.5 mm 0.04 in1.0 mm
05:10 AM 43.1°F6.2°C 39.8°F4.3°C 88% 19.6 mph SSE31.5 kmh SSE 24.2 mph38.9 kmh 29.40 in995.6 mb - 0.03 in0.8 mm 0.04 in1.0 mm
05:00 AM 43.0°F6.1°C 39.7°F4.3°C 88% 20.7 mph SSE33.3 kmh SSE 26.5 mph42.6 kmh 29.40 in995.6 mb - 0.03 in0.8 mm 0.04 in1.0 mm
04:50 AM 42.8°F6.0°C 39.5°F4.2°C 88% 19.6 mph SSE31.5 kmh SSE 24.2 mph38.9 kmh 29.41 in995.9 mb - 0.02 in0.5 mm 0.03 in0.8 mm
04:40 AM 42.5°F5.8°C 39.2°F4.0°C 88% 12.7 mph S20.4 kmh S 21.9 mph35.2 kmh 29.41 in995.9 mb - 0.02 in0.5 mm 0.02 in0.5 mm
04:30 AM 42.7°F5.9°C 39.4°F4.1°C 88% 17.3 mph SE27.8 kmh SE 25.3 mph40.7 kmh 29.41 in995.9 mb - 0.02 in0.5 mm 0.02 in0.5 mm
04:20 AM 42.8°F6.0°C 39.5°F4.2°C 88% 18.4 mph SSE29.6 kmh SSE 31.1 mph50.1 kmh 29.42 in996.3 mb - 0.02 in0.5 mm 0.02 in0.5 mm
04:10 AM 43.0°F6.1°C 39.4°F4.1°C 87% 18.4 mph SSE29.6 kmh SSE 24.2 mph38.9 kmh 29.42 in996.3 mb - 0.01 in0.3 mm 0.01 in0.3 mm
04:00 AM 43.0°F6.1°C 39.4°F4.1°C 87% 15.0 mph SSE24.1 kmh SSE 25.3 mph40.7 kmh 29.42 in996.3 mb - 0.01 in0.3 mm 0.01 in0.3 mm
03:50 AM 43.2°F6.2°C 39.3°F4.1°C 86% 19.6 mph SSE31.5 kmh SSE 26.5 mph42.6 kmh 29.43 in996.6 mb - 0.01 in0.3 mm 0.01 in0.3 mm
03:40 AM 43.6°F6.4°C 39.7°F4.3°C 86% 18.4 mph SSE29.6 kmh SSE 26.5 mph42.6 kmh 29.43 in996.6 mb - 0.00 in0.0 mm 0.01 in0.3 mm
03:30 AM 44.1°F6.7°C 39.6°F4.2°C 84% 20.7 mph SSE33.3 kmh SSE 25.3 mph40.7 kmh 29.43 in996.6 mb - 0.00 in0.0 mm 0.01 in0.3 mm
03:20 AM 44.1°F6.7°C 39.6°F4.2°C 84% 18.4 mph SSE29.6 kmh SSE 26.5 mph42.6 kmh 29.43 in996.6 mb - 0.00 in0.0 mm 0.01 in0.3 mm
03:10 AM 44.0°F6.7°C 39.2°F4.0°C 83% 15.0 mph S24.1 kmh S 24.2 mph38.9 kmh 29.44 in997.0 mb - 0.00 in0.0 mm 0.01 in0.3 mm
03:00 AM 44.1°F6.7°C 39.9°F4.4°C 85% 17.3 mph S27.8 kmh S 24.2 mph38.9 kmh 29.44 in997.0 mb - 0.00 in0.0 mm 0.01 in0.3 mm
02:50 AM 44.1°F6.7°C 39.6°F4.2°C 84% 17.3 mph S27.8 kmh S 26.5 mph42.6 kmh 29.45 in997.3 mb - 0.00 in0.0 mm 0.01 in0.3 mm
02:40 AM 44.2°F6.8°C 39.3°F4.1°C 83% 21.9 mph SSE35.2 kmh SSE 24.2 mph38.9 kmh 29.45 in997.3 mb - 0.00 in0.0 mm 0.01 in0.3 mm
02:30 AM 44.1°F6.7°C 39.6°F4.2°C 84% 16.1 mph SE25.9 kmh SE 21.9 mph35.2 kmh 29.45 in997.3 mb - 0.00 in0.0 mm 0.01 in0.3 mm
02:20 AM 44.2°F6.8°C 40.0°F4.4°C 85% 17.3 mph SSE27.8 kmh SSE 25.3 mph40.7 kmh 29.45 in997.3 mb - 0.00 in0.0 mm 0.01 in0.3 mm
02:10 AM 44.3°F6.8°C 39.2°F4.0°C 82% 16.1 mph SSE25.9 kmh SSE 20.7 mph33.3 kmh 29.45 in997.3 mb - 0.00 in0.0 mm 0.01 in0.3 mm
02:00 AM 44.3°F6.8°C 39.8°F4.3°C 84% 18.4 mph SSE29.6 kmh SSE 26.5 mph42.6 kmh 29.46 in997.6 mb - 0.00 in0.0 mm 0.01 in0.3 mm
01:50 AM 44.1°F6.7°C 39.0°F3.9°C 82% 16.1 mph SSE25.9 kmh SSE 21.9 mph35.2 kmh 29.46 in997.6 mb - 0.00 in0.0 mm 0.01 in0.3 mm
01:40 AM 44.3°F6.8°C 39.5°F4.2°C 83% 16.1 mph SSE25.9 kmh SSE 19.6 mph31.5 kmh 29.46 in997.6 mb - 0.00 in0.0 mm 0.01 in0.3 mm
01:30 AM 44.3°F6.8°C 39.8°F4.3°C 84% 17.3 mph S27.8 kmh S 20.7 mph33.3 kmh 29.47 in998.0 mb - 0.00 in0.0 mm 0.01 in0.3 mm
01:20 AM 44.2°F6.8°C 40.0°F4.4°C 85% 12.7 mph S20.4 kmh S 15.0 mph24.1 kmh 29.47 in998.0 mb - 0.00 in0.0 mm 0.01 in0.3 mm
01:10 AM 44.1°F6.7°C 39.6°F4.2°C 84% 17.3 mph S27.8 kmh S 25.3 mph40.7 kmh 29.47 in998.0 mb - 0.00 in0.0 mm 0.01 in0.3 mm
01:00 AM 44.1°F6.7°C 39.6°F4.2°C 84% 17.3 mph SE27.8 kmh SE 24.2 mph38.9 kmh 29.48 in998.3 mb - 0.00 in0.0 mm 0.01 in0.3 mm
12:50 AM 44.3°F6.8°C 40.1°F4.5°C 85% 15.0 mph SE24.1 kmh SE 20.7 mph33.3 kmh 29.48 in998.3 mb - 0.00 in0.0 mm 0.01 in0.3 mm
12:40 AM 44.3°F6.8°C 39.5°F4.2°C 83% 15.0 mph S24.1 kmh S 19.6 mph31.5 kmh 29.49 in998.6 mb - 0.00 in0.0 mm 0.01 in0.3 mm
12:30 AM 44.1°F6.7°C 39.3°F4.1°C 83% 16.1 mph SSE25.9 kmh SSE 19.6 mph31.5 kmh 29.49 in998.6 mb - 0.00 in0.0 mm 0.01 in0.3 mm
12:20 AM 43.8°F6.6°C 39.6°F4.2°C 85% 13.8 mph SSE22.2 kmh SSE 23.0 mph37.0 kmh 29.49 in998.6 mb - 0.00 in0.0 mm 0.01 in0.3 mm
12:10 AM 44.0°F6.7°C 39.5°F4.2°C 84% 13.8 mph S22.2 kmh S 19.6 mph31.5 kmh 29.50 in999.0 mb - 0.00 in0.0 mm 0.01 in0.3 mm
12:00 AM 44.0°F6.7°C 40.1°F4.5°C 86% 13.8 mph S22.2 kmh S 19.6 mph31.5 kmh 29.50 in999.0 mb - 0.01 in0.3 mm 0.01 in0.3 mm